sensor_id;sensor_type;location;lat;lon;timestamp;temperature;humidity
67186;HTU21D;54116;53.518;49.398;2022-12-18T00:00:54;-1.90;108.31
67186;HTU21D;54116;53.518;49.398;2022-12-18T00:03:20;-1.93;108.50
67186;HTU21D;54116;53.518;49.398;2022-12-18T00:05:48;-1.97;108.49
67186;HTU21D;54116;53.518;49.398;2022-12-18T00:08:14;-2.01;108.56
67186;HTU21D;54116;53.518;49.398;2022-12-18T00:10:40;-2.02;108.70
67186;HTU21D;54116;53.518;49.398;2022-12-18T00:13:07;-2.02;108.92
67186;HTU21D;54116;53.518;49.398;2022-12-18T00:15:34;-2.01;109.56
67186;HTU21D;54116;53.518;49.398;2022-12-18T00:18:01;-1.97;110.29
67186;HTU21D;54116;53.518;49.398;2022-12-18T00:20:27;-1.89;110.77
67186;HTU21D;54116;53.518;49.398;2022-12-18T00:22:53;-1.84;111.09
67186;HTU21D;54116;53.518;49.398;2022-12-18T00:25:19;-1.80;111.13
67186;HTU21D;54116;53.518;49.398;2022-12-18T00:27:45;-1.75;111.25
67186;HTU21D;54116;53.518;49.398;2022-12-18T00:30:12;-1.72;111.00
67186;HTU21D;54116;53.518;49.398;2022-12-18T00:32:38;-1.71;110.47
67186;HTU21D;54116;53.518;49.398;2022-12-18T00:35:05;-1.73;109.67
67186;HTU21D;54116;53.518;49.398;2022-12-18T00:37:33;-1.77;109.22
67186;HTU21D;54116;53.518;49.398;2022-12-18T00:40:00;-1.82;108.92
67186;HTU21D;54116;53.518;49.398;2022-12-18T00:42:26;-1.80;109.20
67186;HTU21D;54116;53.518;49.398;2022-12-18T00:45:11;-1.79;109.17
67186;HTU21D;54116;53.518;49.398;2022-12-18T00:47:37;-1.84;108.62
67186;HTU21D;54116;53.518;49.398;2022-12-18T00:50:03;-1.87;108.37
67186;HTU21D;54116;53.518;49.398;2022-12-18T00:52:29;-1.89;108.33
67186;HTU21D;54116;53.518;49.398;2022-12-18T00:54:55;-1.90;108.11
67186;HTU21D;54116;53.518;49.398;2022-12-18T00:57:21;-1.89;108.88
67186;HTU21D;54116;53.518;49.398;2022-12-18T00:59:47;-1.89;109.06
67186;HTU21D;54116;53.518;49.398;2022-12-18T01:02:13;-1.88;109.74
67186;HTU21D;54116;53.518;49.398;2022-12-18T01:04:39;-1.88;110.17
67186;HTU21D;54116;53.518;49.398;2022-12-18T01:07:05;-1.84;110.91
67186;HTU21D;54116;53.518;49.398;2022-12-18T01:09:31;-1.80;111.32
67186;HTU21D;54116;53.518;49.398;2022-12-18T01:11:57;-1.77;111.90
67186;HTU21D;54116;53.518;49.398;2022-12-18T01:14:23;-1.78;112.13
67186;HTU21D;54116;53.518;49.398;2022-12-18T01:16:49;-1.74;112.61
67186;HTU21D;54116;53.518;49.398;2022-12-18T01:19:15;-1.72;113.00
67186;HTU21D;54116;53.518;49.398;2022-12-18T01:21:42;-1.70;113.90
67186;HTU21D;54116;53.518;49.398;2022-12-18T01:24:11;-1.65;114.44
67186;HTU21D;54116;53.518;49.398;2022-12-18T01:26:37;-1.65;114.70
67186;HTU21D;54116;53.518;49.398;2022-12-18T01:29:03;-1.64;115.04
67186;HTU21D;54116;53.518;49.398;2022-12-18T01:31:31;-1.62;115.29
67186;HTU21D;54116;53.518;49.398;2022-12-18T01:34:00;-1.63;115.41
67186;HTU21D;54116;53.518;49.398;2022-12-18T01:36:32;-1.65;115.27
67186;HTU21D;54116;53.518;49.398;2022-12-18T01:39:00;-1.68;115.45
67186;HTU21D;54116;53.518;49.398;2022-12-18T01:41:29;-1.70;115.73
67186;HTU21D;54116;53.518;49.398;2022-12-18T01:47:26;-1.71;115.39
67186;HTU21D;54116;53.518;49.398;2022-12-18T01:49:54;-1.70;115.48
67186;HTU21D;54116;53.518;49.398;2022-12-18T01:52:20;-1.68;115.48
67186;HTU21D;54116;53.518;49.398;2022-12-18T01:54:48;-1.63;115.68
67186;HTU21D;54116;53.518;49.398;2022-12-18T01:57:16;-1.65;115.90
67186;HTU21D;54116;53.518;49.398;2022-12-18T01:59:42;-1.65;115.83
67186;HTU21D;54116;53.518;49.398;2022-12-18T02:02:08;-1.68;115.54
67186;HTU21D;54116;53.518;49.398;2022-12-18T02:04:34;-1.64;115.36
67186;HTU21D;54116;53.518;49.398;2022-12-18T02:10:00;-1.71;114.70
67186;HTU21D;54116;53.518;49.398;2022-12-18T02:12:48;-1.75;114.75
67186;HTU21D;54116;53.518;49.398;2022-12-18T02:15:17;-1.78;114.95
67186;HTU21D;54116;53.518;49.398;2022-12-18T02:17:54;-1.79;114.72
67186;HTU21D;54116;53.518;49.398;2022-12-18T02:20:35;-1.84;114.43
67186;HTU21D;54116;53.518;49.398;2022-12-18T02:28:23;-1.80;114.88
67186;HTU21D;54116;53.518;49.398;2022-12-18T02:30:53;-1.83;114.86
67186;HTU21D;54116;53.518;49.398;2022-12-18T02:33:22;-1.85;114.86
67186;HTU21D;54116;53.518;49.398;2022-12-18T02:35:51;-1.88;114.88
67186;HTU21D;54116;53.518;49.398;2022-12-18T02:38:18;-1.91;115.09
67186;HTU21D;54116;53.518;49.398;2022-12-18T02:40:44;-1.97;115.54
67186;HTU21D;54116;53.518;49.398;2022-12-18T02:43:14;-1.99;115.73
67186;HTU21D;54116;53.518;49.398;2022-12-18T02:45:49;-1.98;115.94
67186;HTU21D;54116;53.518;49.398;2022-12-18T02:48:18;-1.94;116.09
67186;HTU21D;54116;53.518;49.398;2022-12-18T02:51:08;-1.86;116.67
67186;HTU21D;54116;53.518;49.398;2022-12-18T02:53:53;-1.80;116.78
67186;HTU21D;54116;53.518;49.398;2022-12-18T02:56:51;-1.77;116.62
67186;HTU21D;54116;53.518;49.398;2022-12-18T02:59:25;-1.72;116.71
67186;HTU21D;54116;53.518;49.398;2022-12-18T03:02:00;-1.61;116.89
67186;HTU21D;54116;53.518;49.398;2022-12-18T03:07:09;-1.47;116.99
67186;HTU21D;54116;53.518;49.398;2022-12-18T03:09:38;-1.38;117.09
67186;HTU21D;54116;53.518;49.398;2022-12-18T03:12:13;-1.34;116.99
67186;HTU21D;54116;53.518;49.398;2022-12-18T03:15:19;-1.36;116.73
67186;HTU21D;54116;53.518;49.398;2022-12-18T03:17:51;-1.36;116.71
67186;HTU21D;54116;53.518;49.398;2022-12-18T03:20:20;-1.29;116.89
67186;HTU21D;54116;53.518;49.398;2022-12-18T03:22:51;-1.23;117.27
67186;HTU21D;54116;53.518;49.398;2022-12-18T03:25:20;-1.11;117.67
67186;HTU21D;54116;53.518;49.398;2022-12-18T03:27:49;-1.04;117.66
67186;HTU21D;54116;53.518;49.398;2022-12-18T03:30:17;-1.01;117.79
67186;HTU21D;54116;53.518;49.398;2022-12-18T03:33:09;-0.97;118.16
67186;HTU21D;54116;53.518;49.398;2022-12-18T03:35:39;-0.97;118.31
67186;HTU21D;54116;53.518;49.398;2022-12-18T03:38:07;-0.93;118.84
67186;HTU21D;54116;53.518;49.398;2022-12-18T03:46:08;-0.86;118.99
67186;HTU21D;54116;53.518;49.398;2022-12-18T03:48:41;-0.86;118.99
67186;HTU21D;54116;53.518;49.398;2022-12-18T03:53:59;-0.80;118.99
67186;HTU21D;54116;53.518;49.398;2022-12-18T03:56:29;-0.74;118.99
67186;HTU21D;54116;53.518;49.398;2022-12-18T03:58:57;-0.69;118.99
67186;HTU21D;54116;53.518;49.398;2022-12-18T04:01:37;-0.65;118.99
67186;HTU21D;54116;53.518;49.398;2022-12-18T04:04:04;-0.61;118.99
67186;HTU21D;54116;53.518;49.398;2022-12-18T04:06:31;-0.58;118.99
67186;HTU21D;54116;53.518;49.398;2022-12-18T04:09:00;-0.52;118.99
67186;HTU21D;54116;53.518;49.398;2022-12-18T04:11:26;-0.46;118.99
67186;HTU21D;54116;53.518;49.398;2022-12-18T04:13:57;-0.44;118.99
67186;HTU21D;54116;53.518;49.398;2022-12-18T04:16:25;-0.42;118.99
67186;HTU21D;54116;53.518;49.398;2022-12-18T04:18:51;-0.41;118.99
67186;HTU21D;54116;53.518;49.398;2022-12-18T04:21:17;-0.39;118.99
67186;HTU21D;54116;53.518;49.398;2022-12-18T04:23:43;-0.32;118.99
67186;HTU21D;54116;53.518;49.398;2022-12-18T04:26:10;-0.23;118.99
67186;HTU21D;54116;53.518;49.398;2022-12-18T04:28:36;-0.21;118.99
67186;HTU21D;54116;53.518;49.398;2022-12-18T04:31:02;-0.15;118.99
67186;HTU21D;54116;53.518;49.398;2022-12-18T04:33:28;-0.13;118.99
67186;HTU21D;54116;53.518;49.398;2022-12-18T04:35:54;-0.09;118.99
67186;HTU21D;54116;53.518;49.398;2022-12-18T04:38:20;-0.03;118.99
67186;HTU21D;54116;53.518;49.398;2022-12-18T04:40:46;-0.01;118.99
67186;HTU21D;54116;53.518;49.398;2022-12-18T04:43:13;-0.01;118.99
67186;HTU21D;54116;53.518;49.398;2022-12-18T04:45:39;0.01;118.99
67186;HTU21D;54116;53.518;49.398;2022-12-18T04:48:05;0.01;118.99
67186;HTU21D;54116;53.518;49.398;2022-12-18T04:50:31;0.01;118.95
67186;HTU21D;54116;53.518;49.398;2022-12-18T04:52:57;-0.00;118.47
67186;HTU21D;54116;53.518;49.398;2022-12-18T04:55:24;-0.02;118.20
67186;HTU21D;54116;53.518;49.398;2022-12-18T04:57:50;-0.02;117.81
67186;HTU21D;54116;53.518;49.398;2022-12-18T05:00:16;0.01;117.81
67186;HTU21D;54116;53.518;49.398;2022-12-18T05:02:42;0.08;117.85
67186;HTU21D;54116;53.518;49.398;2022-12-18T05:05:08;0.13;117.17
67186;HTU21D;54116;53.518;49.398;2022-12-18T05:07:35;0.13;116.51
67186;HTU21D;54116;53.518;49.398;2022-12-18T05:10:01;0.09;116.57
67186;HTU21D;54116;53.518;49.398;2022-12-18T05:12:27;0.06;117.18
67186;HTU21D;54116;53.518;49.398;2022-12-18T05:14:53;0.09;117.31
67186;HTU21D;54116;53.518;49.398;2022-12-18T05:17:19;0.14;116.97
67186;HTU21D;54116;53.518;49.398;2022-12-18T05:19:45;0.18;117.20
67186;HTU21D;54116;53.518;49.398;2022-12-18T05:22:11;0.20;117.32
67186;HTU21D;54116;53.518;49.398;2022-12-18T05:24:37;0.28;117.80
67186;HTU21D;54116;53.518;49.398;2022-12-18T05:27:03;0.24;117.80
67186;HTU21D;54116;53.518;49.398;2022-12-18T05:29:31;0.19;117.94
67186;HTU21D;54116;53.518;49.398;2022-12-18T05:31:57;0.13;118.27
67186;HTU21D;54116;53.518;49.398;2022-12-18T05:34:23;0.10;118.73
67186;HTU21D;54116;53.518;49.398;2022-12-18T05:36:50;0.15;118.39
67186;HTU21D;54116;53.518;49.398;2022-12-18T05:39:16;0.14;118.95
67186;HTU21D;54116;53.518;49.398;2022-12-18T05:41:42;0.14;118.80
67186;HTU21D;54116;53.518;49.398;2022-12-18T05:44:08;0.17;118.99
67186;HTU21D;54116;53.518;49.398;2022-12-18T05:46:34;0.12;118.99
67186;HTU21D;54116;53.518;49.398;2022-12-18T05:49:00;0.09;118.99
67186;HTU21D;54116;53.518;49.398;2022-12-18T05:51:29;0.14;118.99
67186;HTU21D;54116;53.518;49.398;2022-12-18T05:53:55;0.20;118.99
67186;HTU21D;54116;53.518;49.398;2022-12-18T05:56:22;0.16;118.99
67186;HTU21D;54116;53.518;49.398;2022-12-18T05:58:53;0.23;118.99
67186;HTU21D;54116;53.518;49.398;2022-12-18T06:01:23;0.32;118.99
67186;HTU21D;54116;53.518;49.398;2022-12-18T06:03:50;0.31;118.26
67186;HTU21D;54116;53.518;49.398;2022-12-18T06:06:18;0.30;117.29
67186;HTU21D;54116;53.518;49.398;2022-12-18T06:08:45;0.29;116.55
67186;HTU21D;54116;53.518;49.398;2022-12-18T06:11:13;0.22;116.28
67186;HTU21D;54116;53.518;49.398;2022-12-18T06:13:39;0.16;115.93
67186;HTU21D;54116;53.518;49.398;2022-12-18T06:16:07;0.14;116.05
67186;HTU21D;54116;53.518;49.398;2022-12-18T06:18:34;0.17;116.04
67186;HTU21D;54116;53.518;49.398;2022-12-18T06:21:03;0.12;115.74
67186;HTU21D;54116;53.518;49.398;2022-12-18T06:23:29;0.07;115.73
67186;HTU21D;54116;53.518;49.398;2022-12-18T06:25:55;-0.00;115.04
67186;HTU21D;54116;53.518;49.398;2022-12-18T06:28:21;-0.05;115.24
67186;HTU21D;54116;53.518;49.398;2022-12-18T06:30:47;-0.08;115.38
67186;HTU21D;54116;53.518;49.398;2022-12-18T06:33:16;-0.19;115.10
67186;HTU21D;54116;53.518;49.398;2022-12-18T06:35:43;-0.24;115.42
67186;HTU21D;54116;53.518;49.398;2022-12-18T06:38:09;-0.17;115.87
67186;HTU21D;54116;53.518;49.398;2022-12-18T06:40:37;-0.10;115.40
67186;HTU21D;54116;53.518;49.398;2022-12-18T06:43:05;-0.09;114.96
67186;HTU21D;54116;53.518;49.398;2022-12-18T06:45:31;-0.19;114.50
67186;HTU21D;54116;53.518;49.398;2022-12-18T06:47:57;-0.16;115.09
67186;HTU21D;54116;53.518;49.398;2022-12-18T06:50:23;-0.16;114.43
67186;HTU21D;54116;53.518;49.398;2022-12-18T06:52:49;-0.16;114.86
67186;HTU21D;54116;53.518;49.398;2022-12-18T06:55:15;-0.05;114.37
67186;HTU21D;54116;53.518;49.398;2022-12-18T06:57:41;-0.12;113.52
67186;HTU21D;54116;53.518;49.398;2022-12-18T07:00:08;-0.17;113.66
67186;HTU21D;54116;53.518;49.398;2022-12-18T07:02:34;-0.19;113.32
67186;HTU21D;54116;53.518;49.398;2022-12-18T07:05:00;-0.22;113.44
67186;HTU21D;54116;53.518;49.398;2022-12-18T07:07:26;-0.25;113.24
67186;HTU21D;54116;53.518;49.398;2022-12-18T07:09:52;-0.25;113.02
67186;HTU21D;54116;53.518;49.398;2022-12-18T07:12:18;-0.24;113.17
67186;HTU21D;54116;53.518;49.398;2022-12-18T07:14:44;-0.22;113.15
67186;HTU21D;54116;53.518;49.398;2022-12-18T07:17:11;-0.22;113.10
67186;HTU21D;54116;53.518;49.398;2022-12-18T07:19:37;-0.23;113.04
67186;HTU21D;54116;53.518;49.398;2022-12-18T07:22:06;-0.22;112.85
67186;HTU21D;54116;53.518;49.398;2022-12-18T07:24:33;-0.23;112.64
67186;HTU21D;54116;53.518;49.398;2022-12-18T07:27:00;-0.23;112.52
67186;HTU21D;54116;53.518;49.398;2022-12-18T07:29:26;-0.24;112.51
67186;HTU21D;54116;53.518;49.398;2022-12-18T07:31:52;-0.27;112.37
67186;HTU21D;54116;53.518;49.398;2022-12-18T07:34:18;-0.29;112.44
67186;HTU21D;54116;53.518;49.398;2022-12-18T07:36:44;-0.30;112.39
67186;HTU21D;54116;53.518;49.398;2022-12-18T07:39:11;-0.34;112.45
67186;HTU21D;54116;53.518;49.398;2022-12-18T07:41:37;-0.31;112.34
67186;HTU21D;54116;53.518;49.398;2022-12-18T07:44:03;-0.31;112.48
67186;HTU21D;54116;53.518;49.398;2022-12-18T07:46:29;-0.32;112.45
67186;HTU21D;54116;53.518;49.398;2022-12-18T07:48:55;-0.31;112.50
67186;HTU21D;54116;53.518;49.398;2022-12-18T07:51:21;-0.31;112.65
67186;HTU21D;54116;53.518;49.398;2022-12-18T07:53:48;-0.30;112.44
67186;HTU21D;54116;53.518;49.398;2022-12-18T07:56:14;-0.30;112.59
67186;HTU21D;54116;53.518;49.398;2022-12-18T07:58:40;-0.32;112.59
67186;HTU21D;54116;53.518;49.398;2022-12-18T08:01:08;-0.30;112.89
67186;HTU21D;54116;53.518;49.398;2022-12-18T08:03:35;-0.29;113.08
67186;HTU21D;54116;53.518;49.398;2022-12-18T08:06:03;-0.28;113.18
67186;HTU21D;54116;53.518;49.398;2022-12-18T08:08:30;-0.28;113.55
67186;HTU21D;54116;53.518;49.398;2022-12-18T08:10:57;-0.26;113.57
67186;HTU21D;54116;53.518;49.398;2022-12-18T08:13:23;-0.28;113.74
67186;HTU21D;54116;53.518;49.398;2022-12-18T08:15:56;-0.27;114.25
67186;HTU21D;54116;53.518;49.398;2022-12-18T08:18:22;-0.26;114.88
67186;HTU21D;54116;53.518;49.398;2022-12-18T08:20:49;-0.22;115.60
67186;HTU21D;54116;53.518;49.398;2022-12-18T08:23:15;-0.17;115.93
67186;HTU21D;54116;53.518;49.398;2022-12-18T08:25:42;-0.17;116.43
67186;HTU21D;54116;53.518;49.398;2022-12-18T08:28:08;-0.14;116.34
67186;HTU21D;54116;53.518;49.398;2022-12-18T08:30:35;-0.14;116.58
67186;HTU21D;54116;53.518;49.398;2022-12-18T08:33:02;-0.11;116.84
67186;HTU21D;54116;53.518;49.398;2022-12-18T08:35:29;-0.08;116.88
67186;HTU21D;54116;53.518;49.398;2022-12-18T08:37:58;-0.08;117.32
67186;HTU21D;54116;53.518;49.398;2022-12-18T08:40:24;-0.08;117.67
67186;HTU21D;54116;53.518;49.398;2022-12-18T08:42:50;-0.08;118.08
67186;HTU21D;54116;53.518;49.398;2022-12-18T08:45:34;-0.07;118.20
67186;HTU21D;54116;53.518;49.398;2022-12-18T08:48:00;-0.05;118.49
67186;HTU21D;54116;53.518;49.398;2022-12-18T08:50:26;-0.03;118.44
67186;HTU21D;54116;53.518;49.398;2022-12-18T08:52:52;-0.02;118.37
67186;HTU21D;54116;53.518;49.398;2022-12-18T08:55:18;-0.02;118.44
67186;HTU21D;54116;53.518;49.398;2022-12-18T08:57:47;-0.03;118.72
67186;HTU21D;54116;53.518;49.398;2022-12-18T09:00:15;-0.01;118.99
67186;HTU21D;54116;53.518;49.398;2022-12-18T09:02:41;-0.00;118.99
67186;HTU21D;54116;53.518;49.398;2022-12-18T09:05:07;0.01;118.99
67186;HTU21D;54116;53.518;49.398;2022-12-18T09:07:33;0.02;118.99
67186;HTU21D;54116;53.518;49.398;2022-12-18T09:09:59;0.09;118.99
67186;HTU21D;54116;53.518;49.398;2022-12-18T09:12:25;0.09;118.99
67186;HTU21D;54116;53.518;49.398;2022-12-18T09:14:51;0.12;118.99
67186;HTU21D;54116;53.518;49.398;2022-12-18T09:17:17;0.12;118.99
67186;HTU21D;54116;53.518;49.398;2022-12-18T09:19:44;0.13;118.99
67186;HTU21D;54116;53.518;49.398;2022-12-18T09:22:11;0.12;118.99
67186;HTU21D;54116;53.518;49.398;2022-12-18T09:24:36;0.13;118.99
67186;HTU21D;54116;53.518;49.398;2022-12-18T09:27:02;0.16;118.99
67186;HTU21D;54116;53.518;49.398;2022-12-18T09:29:28;0.18;118.99
67186;HTU21D;54116;53.518;49.398;2022-12-18T09:31:55;0.18;118.99
67186;HTU21D;54116;53.518;49.398;2022-12-18T09:34:21;0.18;118.99
67186;HTU21D;54116;53.518;49.398;2022-12-18T09:36:47;0.18;118.99
67186;HTU21D;54116;53.518;49.398;2022-12-18T09:39:14;0.19;118.90
67186;HTU21D;54116;53.518;49.398;2022-12-18T09:41:54;0.24;118.77
67186;HTU21D;54116;53.518;49.398;2022-12-18T09:49:38;0.25;118.10
67186;HTU21D;54116;53.518;49.398;2022-12-18T09:52:20;0.28;118.06
67186;HTU21D;54116;53.518;49.398;2022-12-18T09:55:28;0.28;118.01
67186;HTU21D;54116;53.518;49.398;2022-12-18T09:58:00;0.30;117.96
67186;HTU21D;54116;53.518;49.398;2022-12-18T10:00:28;0.31;117.84
67186;HTU21D;54116;53.518;49.398;2022-12-18T10:03:09;0.31;117.99
67186;HTU21D;54116;53.518;49.398;2022-12-18T10:08:05;0.36;117.93
67186;HTU21D;54116;53.518;49.398;2022-12-18T10:10:52;0.39;117.79
67186;HTU21D;54116;53.518;49.398;2022-12-18T10:13:35;0.43;117.78
67186;HTU21D;54116;53.518;49.398;2022-12-18T10:16:21;0.47;117.74
67186;HTU21D;54116;53.518;49.398;2022-12-18T10:19:06;0.49;117.74
67186;HTU21D;54116;53.518;49.398;2022-12-18T10:24:32;0.52;117.37
67186;HTU21D;54116;53.518;49.398;2022-12-18T10:27:13;0.54;117.30
67186;HTU21D;54116;53.518;49.398;2022-12-18T10:29:44;0.59;117.15
67186;HTU21D;54116;53.518;49.398;2022-12-18T10:32:18;0.64;116.73
67186;HTU21D;54116;53.518;49.398;2022-12-18T10:34:49;0.61;116.41
67186;HTU21D;54116;53.518;49.398;2022-12-18T10:37:24;0.64;116.40
67186;HTU21D;54116;53.518;49.398;2022-12-18T10:42:34;0.64;116.18
67186;HTU21D;54116;53.518;49.398;2022-12-18T10:45:18;0.65;116.09
67186;HTU21D;54116;53.518;49.398;2022-12-18T10:47:46;0.65;116.06
67186;HTU21D;54116;53.518;49.398;2022-12-18T10:50:29;0.72;115.90
67186;HTU21D;54116;53.518;49.398;2022-12-18T10:52:57;0.71;115.92
67186;HTU21D;54116;53.518;49.398;2022-12-18T10:55:27;0.64;116.25
67186;HTU21D;54116;53.518;49.398;2022-12-18T10:58:15;0.62;116.58
67186;HTU21D;54116;53.518;49.398;2022-12-18T11:00:42;0.64;116.69
67186;HTU21D;54116;53.518;49.398;2022-12-18T11:03:40;0.63;116.53
67186;HTU21D;54116;53.518;49.398;2022-12-18T11:06:27;0.60;116.76
67186;HTU21D;54116;53.518;49.398;2022-12-18T11:09:07;0.61;116.75
67186;HTU21D;54116;53.518;49.398;2022-12-18T11:11:55;0.61;116.79
67186;HTU21D;54116;53.518;49.398;2022-12-18T11:14:33;0.61;116.68
67186;HTU21D;54116;53.518;49.398;2022-12-18T11:17:00;0.60;116.60
67186;HTU21D;54116;53.518;49.398;2022-12-18T11:19:37;0.61;116.70
67186;HTU21D;54116;53.518;49.398;2022-12-18T11:22:24;0.60;116.64
67186;HTU21D;54116;53.518;49.398;2022-12-18T11:24:55;0.62;116.76
67186;HTU21D;54116;53.518;49.398;2022-12-18T11:27:22;0.61;116.91
67186;HTU21D;54116;53.518;49.398;2022-12-18T11:29:49;0.62;116.90
67186;HTU21D;54116;53.518;49.398;2022-12-18T11:32:38;0.64;116.99
67186;HTU21D;54116;53.518;49.398;2022-12-18T11:37:39;0.72;116.70
67186;HTU21D;54116;53.518;49.398;2022-12-18T11:40:23;0.75;116.54
67186;HTU21D;54116;53.518;49.398;2022-12-18T11:43:22;0.74;116.60
67186;HTU21D;54116;53.518;49.398;2022-12-18T11:46:11;0.79;116.80
67186;HTU21D;54116;53.518;49.398;2022-12-18T11:48:49;0.76;116.86
67186;HTU21D;54116;53.518;49.398;2022-12-18T11:51:23;0.79;116.63
67186;HTU21D;54116;53.518;49.398;2022-12-18T11:53:51;0.76;116.71
67186;HTU21D;54116;53.518;49.398;2022-12-18T11:56:35;0.75;116.78
67186;HTU21D;54116;53.518;49.398;2022-12-18T12:07:22;0.72;116.89
67186;HTU21D;54116;53.518;49.398;2022-12-18T12:12:59;0.74;117.08
67186;HTU21D;54116;53.518;49.398;2022-12-18T12:15:55;0.74;116.98
67186;HTU21D;54116;53.518;49.398;2022-12-18T12:21:28;0.76;117.04
67186;HTU21D;54116;53.518;49.398;2022-12-18T12:39:56;0.78;116.96
67186;HTU21D;54116;53.518;49.398;2022-12-18T12:42:36;0.75;116.91
67186;HTU21D;54116;53.518;49.398;2022-12-18T12:49:03;0.76;117.18
67186;HTU21D;54116;53.518;49.398;2022-12-18T12:51:24;0.78;117.26
67186;HTU21D;54116;53.518;49.398;2022-12-18T12:53:51;0.78;117.30
67186;HTU21D;54116;53.518;49.398;2022-12-18T12:56:20;0.81;117.05
67186;HTU21D;54116;53.518;49.398;2022-12-18T12:58:58;0.80;117.21
67186;HTU21D;54116;53.518;49.398;2022-12-18T13:01:37;0.82;117.44
67186;HTU21D;54116;53.518;49.398;2022-12-18T13:07:24;0.81;117.63
67186;HTU21D;54116;53.518;49.398;2022-12-18T13:12:36;0.81;118.57
67186;HTU21D;54116;53.518;49.398;2022-12-18T13:17:49;0.77;118.98
67186;HTU21D;54116;53.518;49.398;2022-12-18T13:20:15;0.76;118.99
67186;HTU21D;54116;53.518;49.398;2022-12-18T13:22:48;0.75;118.99
67186;HTU21D;54116;53.518;49.398;2022-12-18T13:25:35;0.76;118.99
67186;HTU21D;54116;53.518;49.398;2022-12-18T13:28:06;0.79;118.99
67186;HTU21D;54116;53.518;49.398;2022-12-18T13:38:23;0.87;118.99
67186;HTU21D;54116;53.518;49.398;2022-12-18T13:45:50;0.90;118.99
67186;HTU21D;54116;53.518;49.398;2022-12-18T13:48:26;0.92;118.99
67186;HTU21D;54116;53.518;49.398;2022-12-18T13:51:04;0.95;118.99
67186;HTU21D;54116;53.518;49.398;2022-12-18T13:53:35;0.96;118.99
67186;HTU21D;54116;53.518;49.398;2022-12-18T13:56:03;0.97;118.99
67186;HTU21D;54116;53.518;49.398;2022-12-18T13:58:31;0.96;118.99
67186;HTU21D;54116;53.518;49.398;2022-12-18T14:00:57;0.99;118.99
67186;HTU21D;54116;53.518;49.398;2022-12-18T14:03:28;0.97;118.99
67186;HTU21D;54116;53.518;49.398;2022-12-18T14:06:01;0.94;118.99
67186;HTU21D;54116;53.518;49.398;2022-12-18T14:08:33;0.95;118.99
67186;HTU21D;54116;53.518;49.398;2022-12-18T14:11:00;0.94;118.99
67186;HTU21D;54116;53.518;49.398;2022-12-18T14:13:32;0.95;118.99
67186;HTU21D;54116;53.518;49.398;2022-12-18T14:16:04;0.97;118.99
67186;HTU21D;54116;53.518;49.398;2022-12-18T14:21:24;0.99;118.99
67186;HTU21D;54116;53.518;49.398;2022-12-18T14:24:23;0.98;118.99
67186;HTU21D;54116;53.518;49.398;2022-12-18T14:26:51;0.99;118.99
67186;HTU21D;54116;53.518;49.398;2022-12-18T14:29:28;0.98;118.99
67186;HTU21D;54116;53.518;49.398;2022-12-18T14:32:15;0.98;118.99
67186;HTU21D;54116;53.518;49.398;2022-12-18T14:34:48;1.01;118.99
67186;HTU21D;54116;53.518;49.398;2022-12-18T14:37:17;0.98;118.99
67186;HTU21D;54116;53.518;49.398;2022-12-18T14:40:13;1.01;118.99
67186;HTU21D;54116;53.518;49.398;2022-12-18T14:42:39;1.02;118.99
67186;HTU21D;54116;53.518;49.398;2022-12-18T14:45:34;0.99;118.99
67186;HTU21D;54116;53.518;49.398;2022-12-18T14:48:08;0.98;118.99
67186;HTU21D;54116;53.518;49.398;2022-12-18T14:50:35;0.96;118.99
67186;HTU21D;54116;53.518;49.398;2022-12-18T14:53:02;0.99;118.99
67186;HTU21D;54116;53.518;49.398;2022-12-18T14:55:29;0.98;118.99
67186;HTU21D;54116;53.518;49.398;2022-12-18T14:57:55;0.99;118.99
67186;HTU21D;54116;53.518;49.398;2022-12-18T15:00:24;0.98;118.99
67186;HTU21D;54116;53.518;49.398;2022-12-18T15:02:54;0.98;118.99
67186;HTU21D;54116;53.518;49.398;2022-12-18T15:05:29;1.02;118.99
67186;HTU21D;54116;53.518;49.398;2022-12-18T15:07:58;1.04;118.99
67186;HTU21D;54116;53.518;49.398;2022-12-18T15:10:28;1.04;118.99
67186;HTU21D;54116;53.518;49.398;2022-12-18T15:18:13;1.04;118.99
67186;HTU21D;54116;53.518;49.398;2022-12-18T15:23:45;1.03;118.99
67186;HTU21D;54116;53.518;49.398;2022-12-18T15:26:13;1.02;118.99
67186;HTU21D;54116;53.518;49.398;2022-12-18T15:36:20;1.01;118.99
67186;HTU21D;54116;53.518;49.398;2022-12-18T15:38:48;1.02;118.99
67186;HTU21D;54116;53.518;49.398;2022-12-18T15:41:18;1.03;118.99
67186;HTU21D;54116;53.518;49.398;2022-12-18T15:43:46;1.04;118.99
67186;HTU21D;54116;53.518;49.398;2022-12-18T15:46:18;1.07;118.99
67186;HTU21D;54116;53.518;49.398;2022-12-18T15:48:46;1.08;118.99
67186;HTU21D;54116;53.518;49.398;2022-12-18T15:51:17;1.09;118.99
67186;HTU21D;54116;53.518;49.398;2022-12-18T15:53:44;1.08;118.99
67186;HTU21D;54116;53.518;49.398;2022-12-18T15:56:11;1.08;118.99
67186;HTU21D;54116;53.518;49.398;2022-12-18T15:58:56;1.11;118.99
67186;HTU21D;54116;53.518;49.398;2022-12-18T16:01:29;1.10;118.99
67186;HTU21D;54116;53.518;49.398;2022-12-18T16:03:56;1.10;118.99
67186;HTU21D;54116;53.518;49.398;2022-12-18T16:06:22;1.11;118.99
67186;HTU21D;54116;53.518;49.398;2022-12-18T16:08:49;1.10;118.99
67186;HTU21D;54116;53.518;49.398;2022-12-18T16:11:26;1.11;118.99
67186;HTU21D;54116;53.518;49.398;2022-12-18T16:14:19;1.12;118.99
67186;HTU21D;54116;53.518;49.398;2022-12-18T16:16:47;1.10;118.99
67186;HTU21D;54116;53.518;49.398;2022-12-18T16:19:14;1.08;118.99
67186;HTU21D;54116;53.518;49.398;2022-12-18T16:21:40;1.10;118.99
67186;HTU21D;54116;53.518;49.398;2022-12-18T16:24:14;1.07;118.99
67186;HTU21D;54116;53.518;49.398;2022-12-18T16:26:41;1.06;118.99
67186;HTU21D;54116;53.518;49.398;2022-12-18T16:29:08;1.05;118.99
67186;HTU21D;54116;53.518;49.398;2022-12-18T16:31:35;1.06;118.99
67186;HTU21D;54116;53.518;49.398;2022-12-18T16:36:49;1.05;118.99
67186;HTU21D;54116;53.518;49.398;2022-12-18T16:39:16;1.05;118.99
67186;HTU21D;54116;53.518;49.398;2022-12-18T16:41:42;1.06;118.99
67186;HTU21D;54116;53.518;49.398;2022-12-18T16:44:09;1.04;118.99
67186;HTU21D;54116;53.518;49.398;2022-12-18T16:46:36;1.07;118.99
67186;HTU21D;54116;53.518;49.398;2022-12-18T16:49:02;1.06;118.99
67186;HTU21D;54116;53.518;49.398;2022-12-18T16:51:29;1.06;118.99
67186;HTU21D;54116;53.518;49.398;2022-12-18T16:53:55;1.05;118.99
67186;HTU21D;54116;53.518;49.398;2022-12-18T16:56:21;1.04;118.99
67186;HTU21D;54116;53.518;49.398;2022-12-18T16:58:52;1.04;118.99
67186;HTU21D;54116;53.518;49.398;2022-12-18T17:01:19;1.06;118.99
67186;HTU21D;54116;53.518;49.398;2022-12-18T17:03:53;1.05;118.99
67186;HTU21D;54116;53.518;49.398;2022-12-18T17:06:21;1.06;118.99
67186;HTU21D;54116;53.518;49.398;2022-12-18T17:08:52;1.05;118.99